Data for 09/25/2014

Time Sea-Level Adjusted Pressure Absolute Pressure Temperature Relative Humidity Dew Point   
(mb) (inHg) (mb) (inHg) (C) (F) (%) (C) (F)
00:05 1019 30.09 848 25.04 19.4 67 37 4.4 40
00:10 1019 30.09 848 25.04 19.5 67.1 35 3.7 38.6
00:15 1019 30.09 848 25.04 19.5 67.2 36 4.3 39.8
00:20 1019 30.09 848 25.04 18.8 65.8 39 4.5 40.1
00:25 1019 30.09 848 25.04 18.5 65.2 37 3.6 38.5
00:30 1019 30.09 848 25.04 19.4 66.9 36 4 39.2
00:35 1019 30.09 848 25.04 19.4 67 33 3 37.5
00:40 1019 30.09 848 25.04 20.2 68.3 33 3.6 38.5
00:45 1019 30.09 848 25.04 20.1 68.1 35 4.2 39.6
00:50 1019 30.09 848 25.04 19.5 67.1 35 3.7 38.7
00:55 1019 30.09 848 25.04 19.2 66.5 36 3.8 38.9
01:00 1019 30.09 848 25.04 18.9 65.9 36 3.5 38.2
01:05 1019 30.09 848 25.04 19 66.3 34 2.9 37.3
01:10 1019 30.09 848 25.04 19.8 67.6 33 3 37.4
01:15 1019 30.09 848 25.04 19.4 66.9 34 3.3 37.9
01:20 1019 30.09 848 25.04 19.4 66.9 34 3.3 37.9
01:25 1019 30.09 848 25.04 19.2 66.6 34 3 37.5
01:30 1018 30.06 848 25.04 19.1 66.3 35 3.5 38.2
01:35 1018 30.06 848 25.04 19.3 66.8 34 3.2 37.8
01:40 1018 30.06 848 25.04 19.3 66.7 35 3.4 38.1
01:45 1018 30.06 848 25.04 19.3 66.7 34 3.2 37.7
01:50 1018 30.06 848 25.04 19.5 67.1 34 3.3 37.9
01:55 1018 30.06 848 25.04 19.2 66.5 34 3.1 37.6
02:00 1018 30.06 848 25.04 19.1 66.4 34 3 37.4
02:05 1018 30.06 848 25.04 18.9 65.9 35 3.2 37.8
02:10 1018 30.06 847 25.01 18.8 65.8 35 3.1 37.5
02:15 1018 30.06 847 25.01 19.2 66.5 35 3.4 38.2
02:20 1018 30.06 847 25.01 18.9 65.9 34 2.7 36.8
02:25 1018 30.06 847 25.01 19 66.2 34 2.8 37
02:30 1018 30.06 848 25.04 19.1 66.5 34 2.9 37.3
02:35 1018 30.06 848 25.04 19.3 66.7 33 2.6 36.7
02:40 1018 30.06 848 25.04 19.3 66.8 33 2.9 37.3
02:45 1018 30.06 848 25.04 19.1 66.3 34 2.8 37.1
02:50 1018 30.06 848 25.04 19.1 66.4 34 2.9 37.2
02:55 1018 30.06 848 25.04 19.4 67 32 2.6 36.6
03:00 1018 30.06 848 25.04 19.9 67.9 32 3 37.5
03:05 1018 30.06 848 25.04 19.7 67.4 34 3.6 38.4
03:10 1018 30.06 848 25.04 18.6 65.5 38 4.1 39.4
03:15 1018 30.06 848 25.04 18.2 64.8 38 3.7 38.7
03:20 1019 30.09 848 25.04 17.9 64.3 37 3.1 37.7
03:25 1019 30.09 848 25.04 18.2 64.7 36 3 37.4
03:30 1019 30.09 848 25.04 18.5 65.4 35 3.1 37.6
03:35 1019 30.09 848 25.04 19 66.2 33 2.6 36.7
03:40 1018 30.06 848 25.04 19.5 67.1 33 2.8 37
03:45 1018 30.06 848 25.04 19 66.3 37 4.4 39.8
03:50 1018 30.06 848 25.04 18.3 65 37 3.4 38.2
03:55 1018 30.06 848 25.04 18.1 64.5 37 3.3 38
04:00 1018 30.06 848 25.04 18.1 64.6 36 2.9 37.2
04:05 1018 30.06 848 25.04 17.9 64.2 38 3.6 38.4
04:10 1018 30.06 848 25.04 17.1 62.8 37 2.4 36.3
04:15 1018 30.06 848 25.04 18.1 64.6 36 3.1 37.6
04:20 1018 30.06 848 25.04 17.9 64.1 35 2.3 36.1
04:25 1018 30.06 848 25.04 17.6 63.7 37 2.9 37.1
04:30 1018 30.06 847 25.01 18.1 64.6 31 1 33.8
04:35 1018 30.06 848 25.04 18.7 65.6 41 5.2 41.3
04:40 1018 30.06 848 25.04 17.6 63.8 34 1.6 34.9
04:45 1018 30.06 848 25.04 17.7 63.9 35 2.2 36
04:50 1018 30.06 848 25.04 17.7 63.9 32 0.8 33.4
04:55 1019 30.09 848 25.04 17.8 64 39 3.6 38.5
05:00 1019 30.09 848 25.04 16.3 61.4 36 1.3 34.4
05:05 1019 30.09 848 25.04 17.3 63.2 33 1.1 34
05:10 1019 30.09 848 25.04 17 62.5 39 3.2 37.7
05:15 1019 30.09 848 25.04 16.4 61.5 35 1.1 34
05:20 1019 30.09 848 25.04 17.4 63.3 36 2.4 36.3
05:25 1019 30.09 848 25.04 16.6 61.8 38 2.3 36.1
05:30 1019 30.09 848 25.04 16.4 61.4 37 1.7 35.1
05:35 1019 30.09 848 25.04 16.6 61.8 37 1.8 35.3
05:40 1019 30.09 848 25.04 16.1 60.9 40 2.6 36.7
05:45 1019 30.09 848 25.04 16 60.7 39 2.1 35.8
05:50 1019 30.09 848 25.04 15.9 60.5 39 2.1 35.7
05:55 1019 30.09 848 25.04 15.6 60.1 39 1.7 35.1
06:00 1019 30.09 848 25.04 16 60.7 37 1.4 34.5
06:05 1019 30.09 848 25.04 16.1 61 38 1.9 35.4
06:10 1019 30.09 848 25.04 15.6 60.1 40 2 35.6
06:15 1019 30.09 848 25.04 15.2 59.4 43 2.7 36.9
06:20 1019 30.09 848 25.04 15 58.9 41 1.9 35.4
06:25 1019 30.09 848 25.04 14.6 58.4 43 2.2 36
06:30 1019 30.09 848 25.04 14.7 58.4 42 1.9 35.4
06:35 1019 30.09 848 25.04 15.1 59.3 36 0.2 32.3
06:40 1019 30.09 848 25.04 16.3 61.4 36 1.1 34.1
06:45 1019 30.09 848 25.04 15.9 60.6 37 1.4 34.5
06:50 1019 30.09 848 25.04 15.5 59.9 40 2.1 35.9
06:55 1019 30.09 848 25.04 15.4 59.7 39 1.6 34.9
07:00 1019 30.09 848 25.04 15.6 60 39 1.7 35.1
07:05 1019 30.09 848 25.04 15.9 60.6 38 1.8 35.2
07:10 1019 30.09 848 25.04 16.2 61.1 38 1.8 35.2
07:15 1018 30.06 848 25.04 16.5 61.7 37 1.8 35.3
07:20 1019 30.09 848 25.04 16.7 62.1 37 2.3 36.1
07:25 1019 30.09 848 25.04 16.8 62.2 36 1.9 35.4
07:30 1018 30.06 848 25.04 17.1 62.7 36 2 35.5
07:35 1018 30.06 848 25.04 17.2 63 37 2.6 36.7
07:40 1018 30.06 848 25.04 17.4 63.3 37 2.6 36.7
07:45 1019 30.09 848 25.04 18 64.5 33 1.8 35.3
07:50 1019 30.09 848 25.04 18.8 65.8 33 2.3 36.2
07:55 1019 30.09 848 25.04 18.8 65.8 33 2.5 36.6
08:00 1019 30.09 848 25.04 19.3 66.8 32 2.4 36.3
08:05 1019 30.09 848 25.04 19.9 67.8 34 3.8 38.8
08:10 1019 30.09 848 25.04 20.1 68.3 33 3.6 38.5
08:15 1019 30.09 848 25.04 20.5 68.8 32 3.3 37.9
08:20 1019 30.09 848 25.04 20.9 69.7 31 3.2 37.8
08:25 1018 30.06 848 25.04 21.5 70.7 31 3.8 38.8
08:30 1019 30.09 848 25.04 21.9 71.5 31 4.2 39.5
08:35 1019 30.09 848 25.04 22 71.5 30 3.6 38.6
08:40 1018 30.06 848 25.04 22.6 72.6 28 3.6 38.4
08:45 1018 30.06 848 25.04 23.2 73.7 30 4.7 40.5
08:50 1019 30.09 848 25.04 23.5 74.3 30 4.9 40.8
08:55 1018 30.06 848 25.04 23.9 75 28 4.6 40.2
09:00 1018 30.06 848 25.04 24.2 75.5 28 4.6 40.3
09:05 1018 30.06 848 25.04 24.4 75.8 29 5.6 42
09:10 1018 30.06 848 25.04 24.7 76.4 28 5.4 41.7
09:15 1018 30.06 847 25.01 25.3 77.5 31 6.9 44.5
09:20 1018 30.06 847 25.01 25.7 78.3 25 4.8 40.6
09:25 1018 30.06 847 25.01 26 78.8 26 5.4 41.8
09:30 1018 30.06 847 25.01 26.2 79.2 23 3.5 38.2
09:35 1018 30.06 847 25.01 26.4 79.4 21 2.3 36.1
09:40 1018 30.06 847 25.01 26.7 80 19 1.2 34.1
09:45 1018 30.06 847 25.01 26.8 80.2 19 1.7 35
09:50 1018 30.06 847 25.01 26.8 80.2 19 1.2 34.2
09:55 1018 30.06 847 25.01 27.3 81.2 18 1.3 34.3
10:00 1018 30.06 847 25.01 27.3 81.1 18 0.9 33.7
10:05 1018 30.06 847 25.01 27.2 81 17 0.2 32.3
10:10 1018 30.06 847 25.01 27.1 80.7 17 0.1 32.1
10:15 1018 30.06 847 25.01 27.4 81.4 17 0.2 32.3
10:20 1018 30.06 847 25.01 27.7 81.8 16 -0.4 31.3
10:25 1018 30.06 847 25.01 27.6 81.7 15 -0.9 30.5
10:30 1018 30.06 847 25.01 27.7 81.9 15 -0.9 30.4
10:35 1018 30.06 847 25.01 27.7 81.9 15 -1.2 29.8
10:40 1018 30.06 847 25.01 27.7 81.9 15 -0.8 30.6
10:45 1018 30.06 847 25.01 28.4 83.2 14 -1.4 29.4
10:50 1018 30.06 847 25.01 28.4 83.1 14 -1 30.1
10:55 1017 30.03 847 25.01 28.8 83.8 14 -0.9 30.4
11:00 1017 30.03 847 25.01 28.2 82.8 15 -0.4 31.3
11:05 1017 30.03 847 25.01 28.4 83.1 15 -0.8 30.6
11:10 1017 30.03 846 24.98 29 84.2 15 -0.2 31.7
11:15 1017 30.03 846 24.98 29 84.1 15 -0.3 31.5
11:20 1017 30.03 846 24.98 28.8 83.9 15 -0.1 31.9
11:25 1017 30.03 846 24.98 28.8 83.9 14 -0.9 30.3
11:30 1017 30.03 846 24.98 28.7 83.7 14 -1.4 29.5
11:35 1017 30.03 846 24.98 28.7 83.6 15 -0.1 31.9
11:40 1017 30.03 846 24.98 29 84.1 14 -0.8 30.6
11:45 1017 30.03 846 24.98 28.9 84 14 -0.7 30.7
11:50 1017 30.03 846 24.98 29 84.3 14 -0.9 30.4
11:55 1017 30.03 846 24.98 29 84.1 14 -0.7 30.7
12:00 1017 30.03 846 24.98 29.1 84.3 14 -0.5 31.1
12:05 1016 30 846 24.98 29.9 85.8 14 -0.3 31.4
12:10 1016 30 846 24.98 29.6 85.2 13 -1 30.3
12:15 1016 30 845 24.95 29.7 85.4 15 0.4 32.8
12:20 1016 30 845 24.95 29.6 85.3 14 -0.5 31.1
12:25 1016 30 845 24.95 29.6 85.2 14 -0.5 31.1
12:30 1016 30 845 24.95 29.5 85.1 14 -0.5 31.2
12:35 1016 30 845 24.95 29.8 85.6 14 -0.3 31.4
12:40 1016 30 845 24.95 30.1 86.1 12 -1.6 29.2
12:45 1016 30 845 24.95 30 86.1 12 -1.9 28.6
12:50 1016 30 845 24.95 29.9 85.8 12 -2.2 28.1
12:55 1016 30 845 24.95 29.8 85.7 12 -1.8 28.7
13:00 1016 30 845 24.95 29.7 85.5 12 -2 28.4
13:05 1016 30 845 24.95 29.9 85.9 12 -1.8 28.7
13:10 1016 30 845 24.95 29.9 85.9 13 -1 30.2
13:15 1016 30 845 24.95 29.8 85.7 13 -0.8 30.5
13:20 1016 30 845 24.95 29.9 85.7 13 -1.2 29.8
13:25 1016 30 845 24.95 30 85.9 13 -0.6 30.9
13:30 1015 29.97 845 24.95 30.3 86.5 13 -0.5 31
13:35 1015 29.97 845 24.95 30.1 86.1 13 -0.8 30.5
13:40 1015 29.97 845 24.95 30 86 13 -1 30.1
13:45 1015 29.97 844 24.92 30.1 86.2 13 -0.9 30.4
13:50 1015 29.97 844 24.92 30.3 86.5 13 -0.8 30.6
13:55 1015 29.97 844 24.92 30.1 86.2 13 -0.9 30.3
14:00 1015 29.97 844 24.92 30.2 86.3 13 -0.5 31.1
14:05 1015 29.97 844 24.92 30.4 86.8 13 -0.3 31.4
14:10 1015 29.97 844 24.92 30.4 86.8 13 -0.6 30.9
14:15 1015 29.97 844 24.92 30.3 86.6 13 -0.7 30.7
14:20 1015 29.97 844 24.92 30.8 87.5 13 -0.5 31.1
14:25 1015 29.97 844 24.92 31.6 88.8 13 0.1 32.1
14:30 1015 29.97 844 24.92 31.6 88.8 13 0.6 33.2
14:35 1014 29.94 844 24.92 31.8 89.2 13 -0.1 31.8
14:40 1014 29.94 844 24.92 31.4 88.4 15 2.1 35.7
14:45 1014 29.94 844 24.92 31.4 88.5 13 -0.3 31.5
14:50 1014 29.94 844 24.92 30.9 87.6 13 -0.5 31.1
14:55 1014 29.94 844 24.92 30.8 87.4 13 -0.7 30.8
15:00 1014 29.94 844 24.92 30.6 87.1 12 -1.2 29.8
15:05 1014 29.94 844 24.92 30.4 86.8 13 -1 30.3
15:10 1014 29.94 843 24.89 30.8 87.4 13 -0.6 30.9
15:15 1014 29.94 844 24.92 30.7 87.2 13 -1 30.2
15:20 1014 29.94 844 24.92 30.7 87.2 12 -1.2 29.9
15:25 1014 29.94 843 24.89 30.6 87.1 13 -0.9 30.4
15:30 1014 29.94 843 24.89 30.5 86.8 13 -0.8 30.6
15:35 1014 29.94 843 24.89 30.6 87.1 13 -0.1 31.9
15:40 1014 29.94 843 24.89 30.9 87.5 12 -1.3 29.6
15:45 1014 29.94 843 24.89 30.5 86.9 13 -0.9 30.4
15:50 1014 29.94 843 24.89 30.6 87.1 13 -0.8 30.5
15:55 1014 29.94 843 24.89 30.6 87 13 -0.4 31.4
16:00 1014 29.94 843 24.89 30.3 86.6 13 -1.2 29.8
16:05 1014 29.94 843 24.89 30.2 86.3 13 -1.4 29.4
16:10 1014 29.94 843 24.89 30.2 86.3 13 -0.5 31
16:15 1014 29.94 843 24.89 30.2 86.4 13 -0.7 30.7
16:20 1014 29.94 843 24.89 30 86 14 -0.3 31.5
16:25 1014 29.94 844 24.92 29.9 85.8 14 -0 31.9
16:30 1014 29.94 843 24.89 29.7 85.5 14 -0.5 31.1
16:35 1014 29.94 843 24.89 29.6 85.3 14 -0.5 31
16:40 1014 29.94 843 24.89 29.7 85.4 14 -0.5 31.1
16:45 1014 29.94 843 24.89 29.6 85.4 14 -0.6 30.9
16:50 1014 29.94 843 24.89 29.6 85.2 14 -0.2 31.7
16:55 1014 29.94 843 24.89 29.4 85 14 -0.1 31.7
17:00 1014 29.94 843 24.89 29.3 84.8 14 -0.4 31.2
17:05 1014 29.94 843 24.89 29.3 84.7 15 0 32.1
17:10 1014 29.94 843 24.89 29.1 84.3 15 0 32
17:15 1014 29.94 843 24.89 28.8 83.9 15 0.2 32.3
17:20 1014 29.94 843 24.89 28.7 83.6 15 -0.3 31.5
17:25 1014 29.94 843 24.89 28.6 83.6 14 -0.7 30.8
17:30 1014 29.94 843 24.89 28.7 83.6 15 0.1 32.2
17:35 1014 29.94 843 24.89 28.1 82.6 17 1.4 34.6
17:40 1014 29.94 843 24.89 27.7 81.8 18 1.5 34.7
17:45 1014 29.94 843 24.89 27.7 81.8 18 1.2 34.1
17:50 1014 29.94 843 24.89 27.6 81.7 17 0.7 33.3
17:55 1014 29.94 843 24.89 27.5 81.5 18 1.3 34.3
18:00 1014 29.94 843 24.89 27.4 81.4 17 0.9 33.5
18:05 1014 29.94 843 24.89 27.7 81.9 17 0.5 32.9
18:10 1014 29.94 843 24.89 27.6 81.8 17 0.5 32.9
18:15 1014 29.94 843 24.89 27.7 81.8 16 -0.3 31.4
18:20 1014 29.94 843 24.89 27.6 81.7 15 -0.8 30.6
18:25 1014 29.94 843 24.89 27.8 82 15 -0.5 31.1
18:30 1014 29.94 843 24.89 27.8 82 16 0.2 32.4
18:35 1014 29.94 843 24.89 27.2 81 18 1.5 34.7
18:40 1014 29.94 843 24.89 26.5 79.6 20 1.7 35.1
18:45 1014 29.94 843 24.89 25.8 78.4 21 2.1 35.8
18:50 1014 29.94 843 24.89 25.3 77.5 22 2 35.7
18:55 1014 29.94 843 24.89 24.9 76.8 22 2 35.7
19:00 1014 29.94 843 24.89 25 76.9 20 0.6 33.1
19:05 1014 29.94 843 24.89 26.6 79.9 18 0.8 33.4
19:10 1014 29.94 843 24.89 26.7 80 19 1.4 34.5
19:15 1014 29.94 843 24.89 26.3 79.3 20 1.5 34.7
19:20 1014 29.94 843 24.89 26.2 79.2 18 0.5 32.8
19:25 1014 29.94 844 24.92 26.5 79.7 19 1.1 34.1
19:30 1014 29.94 844 24.92 26.2 79.1 20 1.5 34.7
19:35 1014 29.94 844 24.92 25.7 78.3 20 1.2 34.1
19:40 1015 29.97 844 24.92 25.8 78.4 20 1.3 34.3
19:45 1014 29.94 844 24.92 25.9 78.7 19 0.8 33.4
19:50 1015 29.97 844 24.92 26 78.9 19 1.1 34
19:55 1015 29.97 844 24.92 25.5 78 21 2 35.7
20:00 1015 29.97 844 24.92 25.1 77.1 20 0.5 32.9
20:05 1015 29.97 844 24.92 25.3 77.6 20 1.2 34.2
20:10 1015 29.97 844 24.92 25.1 77.1 21 1.3 34.4
20:15 1015 29.97 844 24.92 25.6 78.1 20 0.9 33.7
20:20 1015 29.97 844 24.92 25.3 77.6 21 1.8 35.3
20:25 1015 29.97 844 24.92 24.8 76.6 23 2.4 36.3
20:30 1015 29.97 844 24.92 24.2 75.5 21 0.8 33.5
20:35 1015 29.97 844 24.92 24.3 75.8 24 2.5 36.4
20:40 1015 29.97 844 24.92 23.3 73.9 24 1.6 34.9
20:45 1015 29.97 844 24.92 23.5 74.3 25 2.4 36.4
20:50 1015 29.97 844 24.92 22.9 73.3 26 2.9 37.2
20:55 1015 29.97 844 24.92 22 71.6 27 2.6 36.6
21:00 1015 29.97 844 24.92 22.3 72.1 26 1.9 35.4
21:05 1015 29.97 844 24.92 22.5 72.5 26 2.5 36.4
21:10 1015 29.97 844 24.92 22.5 72.5 26 2.1 35.8
21:15 1014 29.94 844 24.92 22.6 72.7 24 1.4 34.5
21:20 1014 29.94 844 24.92 22.7 72.9 25 2 35.7
21:25 1014 29.94 844 24.92 22.3 72.2 25 1.8 35.3
21:30 1014 29.94 844 24.92 22.2 72 26 1.9 35.4
21:35 1014 29.94 843 24.89 22.1 71.9 25 1.4 34.5
21:40 1014 29.94 843 24.89 22.2 72 25 1.2 34.2
21:45 1014 29.94 843 24.89 22.3 72.1 25 1.3 34.4
21:50 1014 29.94 843 24.89 22.5 72.4 25 1.9 35.3
21:55 1014 29.94 843 24.89 22 71.6 26 1.7 35
22:00 1014 29.94 843 24.89 21.7 71.1 26 1.3 34.3
22:05 1014 29.94 843 24.89 21.6 70.9 26 1.4 34.6
22:10 1014 29.94 843 24.89 21.5 70.8 24 0.4 32.8
22:15 1014 29.94 843 24.89 22.6 72.6 23 0.5 32.8
22:20 1014 29.94 843 24.89 22.8 73 19 -1.6 29.1
22:25 1014 29.94 843 24.89 23.6 74.5 19 -0.9 30.4
22:30 1014 29.94 843 24.89 24.1 75.4 18 -1.5 29.2
22:35 1013 29.91 843 24.89 24.6 76.2 17 -1.8 28.8
22:40 1013 29.91 843 24.89 25.1 77.2 16 -2.1 28.1
22:45 1014 29.94 843 24.89 25.1 77.1 17 -1.6 29
22:50 1014 29.94 843 24.89 24.5 76.1 17 -1.6 29.1
22:55 1014 29.94 843 24.89 24.2 75.6 18 -1 30.2
23:00 1013 29.91 843 24.89 24.7 76.5 17 -1.9 28.6
23:05 1013 29.91 843 24.89 25 77 17 -1.2 29.8
23:10 1013 29.91 843 24.89 24.6 76.2 17 -1.5 29.4
23:15 1013 29.91 842 24.86 25 77 16 -2.4 27.8
23:20 1013 29.91 842 24.86 25.4 77.8 16 -2.1 28.2
23:25 1013 29.91 842 24.86 25.4 77.7 16 -1.9 28.5
23:30 1013 29.91 843 24.89 25.3 77.5 18 -0.9 30.4
23:35 1013 29.91 843 24.89 24.8 76.6 18 -0.8 30.5
23:40 1013 29.91 843 24.89 24.3 75.7 20 0.2 32.4
23:45 1013 29.91 842 24.86 23.9 75 18 -1.6 29.1
23:50 1013 29.91 842 24.86 24.1 75.3 19 -0.5 31.2
23:55 1013 29.91 842 24.86 23.1 73.6 21 -0.3 31.5
24:00 1013 29.91 842 24.86 22.8 73 20 -1.3 29.7